createdAt,value
2018-02-02T00:02:35.718Z,100
2018-02-02T00:12:50.500Z,100
2018-02-02T00:23:04.210Z,100
2018-02-02T00:33:18.181Z,100
2018-02-02T00:43:32.740Z,100
2018-02-02T00:53:46.920Z,100
2018-02-02T01:04:01.904Z,100
2018-02-02T01:14:16.894Z,100
2018-02-02T01:24:31.190Z,100
2018-02-02T01:34:45.571Z,100
2018-02-02T01:45:00.042Z,100
2018-02-02T01:55:13.792Z,100
2018-02-02T02:05:27.565Z,100
2018-02-02T02:15:42.078Z,100
2018-02-02T02:25:57.051Z,100
2018-02-02T02:36:11.658Z,100
2018-02-02T02:46:25.682Z,100
2018-02-02T02:56:40.141Z,100
2018-02-02T03:06:54.448Z,100
2018-02-02T03:17:09.486Z,100
2018-02-02T03:27:25.019Z,100
2018-02-02T03:37:39.107Z,100
2018-02-02T03:47:53.140Z,100
2018-02-02T03:58:08.677Z,100
2018-02-02T04:08:24.194Z,100
2018-02-02T04:18:39.564Z,100
2018-02-02T04:28:54.168Z,100
2018-02-02T04:39:09.052Z,100
2018-02-02T04:49:23.746Z,100
2018-02-02T04:59:39.401Z,100
2018-02-02T05:20:07.816Z,100
2018-02-02T05:30:23.332Z,99.8
2018-02-02T05:40:37.809Z,100
2018-02-02T05:50:52.973Z,100
2018-02-02T06:01:07.745Z,99.8
2018-02-02T06:11:21.505Z,99.5
2018-02-02T06:21:35.328Z,99.1
2018-02-02T06:31:49.866Z,99
2018-02-02T06:42:03.738Z,98.8
2018-02-02T06:52:17.836Z,98.8
2018-02-02T07:02:32.912Z,99
2018-02-02T07:12:46.310Z,98.5
2018-02-02T07:22:59.996Z,97.6
2018-02-02T07:33:14.645Z,97.4
2018-02-02T07:43:28.638Z,96.8
2018-02-02T07:53:43.457Z,96.7
2018-02-02T08:03:57.470Z,96.4
2018-02-02T08:14:12.392Z,96.6
2018-02-02T08:24:26.737Z,96.7
2018-02-02T08:34:41.050Z,96.4
2018-02-02T08:44:54.901Z,96.2
2018-02-02T08:55:10.254Z,96.5
2018-02-02T09:05:25.593Z,96.7
2018-02-02T09:15:40.984Z,96.7
2018-02-02T09:25:55.703Z,96.4
2018-02-02T09:36:09.674Z,97.4
2018-02-02T09:46:24.720Z,97
2018-02-02T09:56:38.779Z,97.8
2018-02-02T10:06:53.637Z,98.3
2018-02-02T10:17:08.155Z,98.7
2018-02-02T10:27:21.894Z,98.6
2018-02-02T10:37:35.656Z,98.5
2018-02-02T10:47:50.585Z,98.3
2018-02-02T10:58:05.691Z,98.5
2018-02-02T11:08:20.456Z,99.6
2018-02-02T11:18:35.911Z,99.2
2018-02-02T11:28:50.171Z,98.6
2018-02-02T11:39:04.922Z,98.6
2018-02-02T11:49:19.628Z,99
2018-02-02T11:59:33.902Z,98.2
2018-02-02T12:20:04.392Z,100
2018-02-02T12:40:33.472Z,100
2018-02-02T12:50:48.373Z,100
2018-02-02T13:01:02.517Z,100
2018-02-02T13:11:17.771Z,100
2018-02-02T13:21:33.105Z,100
2018-02-02T13:31:47.802Z,100
2018-02-02T13:42:03.276Z,100
2018-02-02T13:52:18.567Z,100
2018-02-02T14:02:33.539Z,100
2018-02-02T14:12:49.392Z,100
2018-02-02T14:23:04.227Z,100
2018-02-02T14:33:19.249Z,100
2018-02-02T14:43:34.917Z,100
2018-02-02T14:53:49.062Z,100
2018-02-02T15:04:02.931Z,100
2018-02-02T15:14:16.962Z,100
2018-02-02T15:24:32.173Z,100
2018-02-02T15:34:46.678Z,100
2018-02-02T15:45:01.384Z,100
2018-02-02T15:55:16.377Z,100
2018-02-02T16:05:31.178Z,100
2018-02-02T16:15:44.990Z,100
2018-02-02T16:25:59.704Z,100
2018-02-02T16:36:14.160Z,100
2018-02-02T16:46:28.897Z,100
2018-02-02T16:56:43.441Z,100
2018-02-02T17:06:58.159Z,100
2018-02-02T17:17:11.938Z,100
2018-02-02T17:27:26.553Z,100
2018-02-02T17:37:41.187Z,100
2018-02-02T17:47:56.223Z,100
2018-02-02T17:58:10.711Z,100
2018-02-02T18:08:25.392Z,100
2018-02-02T18:18:39.757Z,100
2018-02-02T18:28:54.673Z,100
2018-02-02T18:39:10.133Z,100
2018-02-02T18:49:25.602Z,100
2018-02-02T18:59:41.065Z,100
2018-02-02T19:09:55.931Z,100
2018-02-02T19:20:10.037Z,100
2018-02-02T19:30:25.640Z,100
2018-02-02T19:40:39.543Z,100
2018-02-02T19:50:53.406Z,100
2018-02-02T20:01:07.368Z,100
2018-02-02T20:11:22.520Z,100
2018-02-02T20:21:36.964Z,100
2018-02-02T20:31:51.241Z,100
2018-02-02T20:42:06.317Z,100
2018-02-02T20:52:21.222Z,100
2018-02-02T21:02:36.140Z,100
2018-02-02T21:12:50.679Z,100
2018-02-02T21:23:06.143Z,100
2018-02-02T21:33:21.620Z,100
2018-02-02T21:43:36.787Z,100
2018-02-02T21:53:52.235Z,100
2018-02-02T22:04:06.370Z,100
2018-02-02T22:14:21.297Z,100
2018-02-02T22:24:35.191Z,100
2018-02-02T22:34:49.035Z,100
2018-02-02T22:45:03.325Z,100
2018-02-02T22:55:17.055Z,100
2018-02-02T23:05:31.446Z,100
2018-02-02T23:15:46.174Z,100
2018-02-02T23:26:00.527Z,100
2018-02-02T23:36:14.712Z,100
2018-02-02T23:46:29.962Z,100
2018-02-02T23:56:43.657Z,100
